MKK weather

Molokai Airport
Kaunakakai, Hawaii, United States

Public forecast

Using degrees Fahrenheit for public forecast. Weather courtesy of forecast.io.

METAR (pilot weather report)

Retrieved 2019/05/22 13:54 UTC (22 minutes ago):

PHMK 221354Z AUTO 32005KT 10SM CLR 21/19 A3001 RMK AO2 SLP164 T02060189 TSNO

TAF (pilot weather forecast)

Retrieved 2019/05/22 12:39 UTC (2 hours ago):

TAF PHMK 221137Z 2212/2312 VRB05KT P6SM FEW025 SCT045 FM222100 05011KT P6SM SCT025 SCT045 FM230500 VRB05KT P6SM FEW025 FEW045